sensor_id;sensor_type;location;lat;lon;timestamp;P1;durP1;ratioP1;P2;durP2;ratioP2
35887;SDS011;21990;42.540;23.496;2023-04-24T00:00:50;25.55;;;12.77;;
35887;SDS011;21990;42.540;23.496;2023-04-24T00:03:17;23.90;;;12.02;;
35887;SDS011;21990;42.540;23.496;2023-04-24T00:05:45;28.92;;;12.57;;
35887;SDS011;21990;42.540;23.496;2023-04-24T00:08:11;25.55;;;11.65;;
35887;SDS011;21990;42.540;23.496;2023-04-24T00:10:37;20.48;;;11.82;;
35887;SDS011;21990;42.540;23.496;2023-04-24T00:13:03;33.22;;;12.60;;
35887;SDS011;21990;42.540;23.496;2023-04-24T00:15:28;25.50;;;11.93;;
35887;SDS011;21990;42.540;23.496;2023-04-24T00:17:54;25.02;;;11.88;;
35887;SDS011;21990;42.540;23.496;2023-04-24T00:20:19;20.20;;;11.32;;
35887;SDS011;21990;42.540;23.496;2023-04-24T00:22:46;20.27;;;11.32;;
35887;SDS011;21990;42.540;23.496;2023-04-24T00:25:11;18.42;;;10.52;;
35887;SDS011;21990;42.540;23.496;2023-04-24T00:27:37;26.88;;;11.15;;
35887;SDS011;21990;42.540;23.496;2023-04-24T00:30:04;28.58;;;12.40;;
35887;SDS011;21990;42.540;23.496;2023-04-24T00:32:30;23.17;;;13.80;;
35887;SDS011;21990;42.540;23.496;2023-04-24T00:34:55;25.52;;;13.30;;
35887;SDS011;21990;42.540;23.496;2023-04-24T00:37:21;37.42;;;12.85;;
35887;SDS011;21990;42.540;23.496;2023-04-24T00:39:46;25.52;;;13.48;;
35887;SDS011;21990;42.540;23.496;2023-04-24T00:42:12;31.65;;;13.48;;
35887;SDS011;21990;42.540;23.496;2023-04-24T00:44:38;19.83;;;12.05;;
35887;SDS011;21990;42.540;23.496;2023-04-24T00:47:03;20.77;;;12.73;;
35887;SDS011;21990;42.540;23.496;2023-04-24T00:49:29;24.65;;;11.70;;
35887;SDS011;21990;42.540;23.496;2023-04-24T00:51:55;22.80;;;12.25;;
35887;SDS011;21990;42.540;23.496;2023-04-24T00:54:21;25.30;;;12.90;;
35887;SDS011;21990;42.540;23.496;2023-04-24T00:56:47;23.70;;;13.48;;
35887;SDS011;21990;42.540;23.496;2023-04-24T00:59:14;22.98;;;13.23;;
35887;SDS011;21990;42.540;23.496;2023-04-24T01:01:42;24.25;;;13.52;;
35887;SDS011;21990;42.540;23.496;2023-04-24T01:04:09;23.73;;;12.27;;
35887;SDS011;21990;42.540;23.496;2023-04-24T01:06:37;23.58;;;13.30;;
35887;SDS011;21990;42.540;23.496;2023-04-24T01:09:04;25.65;;;12.27;;
35887;SDS011;21990;42.540;23.496;2023-04-24T01:11:30;28.33;;;11.90;;
35887;SDS011;21990;42.540;23.496;2023-04-24T01:13:56;23.77;;;12.30;;
35887;SDS011;21990;42.540;23.496;2023-04-24T01:16:21;23.50;;;13.30;;
35887;SDS011;21990;42.540;23.496;2023-04-24T01:18:48;27.00;;;12.13;;
35887;SDS011;21990;42.540;23.496;2023-04-24T01:21:14;25.85;;;11.70;;
35887;SDS011;21990;42.540;23.496;2023-04-24T01:23:44;23.80;;;12.82;;
35887;SDS011;21990;42.540;23.496;2023-04-24T01:26:11;21.85;;;12.20;;
35887;SDS011;21990;42.540;23.496;2023-04-24T01:28:38;27.45;;;12.57;;
35887;SDS011;21990;42.540;23.496;2023-04-24T01:31:03;31.75;;;12.38;;
35887;SDS011;21990;42.540;23.496;2023-04-24T01:33:29;24.38;;;11.95;;
35887;SDS011;21990;42.540;23.496;2023-04-24T01:35:55;17.48;;;11.15;;
35887;SDS011;21990;42.540;23.496;2023-04-24T01:38:21;17.35;;;11.07;;
35887;SDS011;21990;42.540;23.496;2023-04-24T01:40:47;27.90;;;11.88;;
35887;SDS011;21990;42.540;23.496;2023-04-24T01:43:12;23.55;;;12.00;;
35887;SDS011;21990;42.540;23.496;2023-04-24T01:45:38;19.95;;;11.55;;
35887;SDS011;21990;42.540;23.496;2023-04-24T01:48:04;17.58;;;11.13;;
35887;SDS011;21990;42.540;23.496;2023-04-24T01:50:30;22.02;;;11.23;;
35887;SDS011;21990;42.540;23.496;2023-04-24T01:52:56;22.13;;;11.20;;
35887;SDS011;21990;42.540;23.496;2023-04-24T01:55:21;20.20;;;11.40;;
35887;SDS011;21990;42.540;23.496;2023-04-24T01:57:47;21.90;;;10.55;;
35887;SDS011;21990;42.540;23.496;2023-04-24T02:00:12;29.92;;;10.75;;
35887;SDS011;21990;42.540;23.496;2023-04-24T02:02:39;19.80;;;11.65;;
35887;SDS011;21990;42.540;23.496;2023-04-24T02:05:06;23.38;;;11.82;;
35887;SDS011;21990;42.540;23.496;2023-04-24T02:07:32;24.63;;;11.65;;
35887;SDS011;21990;42.540;23.496;2023-04-24T02:09:58;18.42;;;11.88;;
35887;SDS011;21990;42.540;23.496;2023-04-24T02:12:24;21.13;;;12.07;;
35887;SDS011;21990;42.540;23.496;2023-04-24T02:14:49;30.30;;;12.60;;
35887;SDS011;21990;42.540;23.496;2023-04-24T02:17:15;32.15;;;12.60;;
35887;SDS011;21990;42.540;23.496;2023-04-24T02:19:41;22.73;;;12.05;;
35887;SDS011;21990;42.540;23.496;2023-04-24T02:22:07;22.73;;;11.70;;
35887;SDS011;21990;42.540;23.496;2023-04-24T02:24:33;23.30;;;12.35;;
35887;SDS011;21990;42.540;23.496;2023-04-24T02:26:58;23.83;;;11.70;;
35887;SDS011;21990;42.540;23.496;2023-04-24T02:29:25;17.05;;;11.32;;
35887;SDS011;21990;42.540;23.496;2023-04-24T02:31:50;20.38;;;11.20;;
35887;SDS011;21990;42.540;23.496;2023-04-24T02:34:16;22.10;;;10.98;;
35887;SDS011;21990;42.540;23.496;2023-04-24T02:36:42;22.13;;;10.85;;
35887;SDS011;21990;42.540;23.496;2023-04-24T02:39:07;23.13;;;11.10;;
35887;SDS011;21990;42.540;23.496;2023-04-24T02:41:33;19.13;;;10.82;;
35887;SDS011;21990;42.540;23.496;2023-04-24T02:43:58;22.35;;;10.63;;
35887;SDS011;21990;42.540;23.496;2023-04-24T02:46:24;19.40;;;11.95;;
35887;SDS011;21990;42.540;23.496;2023-04-24T02:48:50;18.05;;;11.45;;
35887;SDS011;21990;42.540;23.496;2023-04-24T02:51:16;20.75;;;11.57;;
35887;SDS011;21990;42.540;23.496;2023-04-24T02:53:41;25.38;;;12.00;;
35887;SDS011;21990;42.540;23.496;2023-04-24T02:56:07;18.02;;;11.75;;
35887;SDS011;21990;42.540;23.496;2023-04-24T02:58:32;16.92;;;11.13;;
35887;SDS011;21990;42.540;23.496;2023-04-24T03:00:58;18.83;;;11.80;;
35887;SDS011;21990;42.540;23.496;2023-04-24T03:03:23;18.15;;;10.45;;
35887;SDS011;21990;42.540;23.496;2023-04-24T03:05:49;23.70;;;10.25;;
35887;SDS011;21990;42.540;23.496;2023-04-24T03:08:15;20.10;;;10.90;;
35887;SDS011;21990;42.540;23.496;2023-04-24T03:10:41;18.33;;;10.82;;
35887;SDS011;21990;42.540;23.496;2023-04-24T03:13:06;14.45;;;10.00;;
35887;SDS011;21990;42.540;23.496;2023-04-24T03:15:32;17.58;;;10.40;;
35887;SDS011;21990;42.540;23.496;2023-04-24T03:17:57;17.33;;;10.40;;
35887;SDS011;21990;42.540;23.496;2023-04-24T03:20:23;16.63;;;10.57;;
35887;SDS011;21990;42.540;23.496;2023-04-24T03:22:49;20.95;;;10.85;;
35887;SDS011;21990;42.540;23.496;2023-04-24T03:25:14;26.30;;;11.95;;
35887;SDS011;21990;42.540;23.496;2023-04-24T03:27:40;42.35;;;18.75;;
35887;SDS011;21990;42.540;23.496;2023-04-24T03:30:06;30.98;;;13.85;;
35887;SDS011;21990;42.540;23.496;2023-04-24T03:32:33;24.13;;;12.90;;
35887;SDS011;21990;42.540;23.496;2023-04-24T03:34:58;21.92;;;13.77;;
35887;SDS011;21990;42.540;23.496;2023-04-24T03:37:24;26.15;;;14.45;;
35887;SDS011;21990;42.540;23.496;2023-04-24T03:39:50;22.80;;;11.30;;
35887;SDS011;21990;42.540;23.496;2023-04-24T03:42:16;20.77;;;12.13;;
35887;SDS011;21990;42.540;23.496;2023-04-24T03:44:41;29.20;;;13.93;;
35887;SDS011;21990;42.540;23.496;2023-04-24T03:47:07;26.02;;;14.68;;
35887;SDS011;21990;42.540;23.496;2023-04-24T03:49:32;24.73;;;13.52;;
35887;SDS011;21990;42.540;23.496;2023-04-24T03:51:58;22.88;;;12.95;;
35887;SDS011;21990;42.540;23.496;2023-04-24T03:54:23;24.90;;;13.43;;
35887;SDS011;21990;42.540;23.496;2023-04-24T03:56:49;26.05;;;13.05;;
35887;SDS011;21990;42.540;23.496;2023-04-24T03:59:15;23.70;;;14.32;;
35887;SDS011;21990;42.540;23.496;2023-04-24T04:01:40;20.42;;;12.98;;
35887;SDS011;21990;42.540;23.496;2023-04-24T04:04:06;19.20;;;11.43;;
35887;SDS011;21990;42.540;23.496;2023-04-24T04:06:33;34.58;;;13.27;;
35887;SDS011;21990;42.540;23.496;2023-04-24T04:08:58;23.63;;;13.05;;
35887;SDS011;21990;42.540;23.496;2023-04-24T04:11:25;32.90;;;15.63;;
35887;SDS011;21990;42.540;23.496;2023-04-24T04:13:50;25.58;;;13.30;;
35887;SDS011;21990;42.540;23.496;2023-04-24T04:16:16;21.42;;;13.77;;
35887;SDS011;21990;42.540;23.496;2023-04-24T04:18:42;22.10;;;14.52;;
35887;SDS011;21990;42.540;23.496;2023-04-24T04:21:08;22.05;;;13.88;;
35887;SDS011;21990;42.540;23.496;2023-04-24T04:23:34;21.80;;;12.35;;
35887;SDS011;21990;42.540;23.496;2023-04-24T04:26:00;21.75;;;13.45;;
35887;SDS011;21990;42.540;23.496;2023-04-24T04:28:26;25.92;;;13.27;;
35887;SDS011;21990;42.540;23.496;2023-04-24T04:30:51;23.30;;;13.00;;
35887;SDS011;21990;42.540;23.496;2023-04-24T04:33:20;22.13;;;13.93;;
35887;SDS011;21990;42.540;23.496;2023-04-24T04:35:47;35.97;;;16.60;;
35887;SDS011;21990;42.540;23.496;2023-04-24T04:38:21;40.60;;;18.25;;
35887;SDS011;21990;42.540;23.496;2023-04-24T04:40:47;37.15;;;19.42;;
35887;SDS011;21990;42.540;23.496;2023-04-24T04:43:13;43.08;;;26.10;;
35887;SDS011;21990;42.540;23.496;2023-04-24T04:45:41;25.98;;;16.08;;
35887;SDS011;21990;42.540;23.496;2023-04-24T04:48:08;27.80;;;12.23;;
35887;SDS011;21990;42.540;23.496;2023-04-24T04:50:34;19.58;;;10.18;;
35887;SDS011;21990;42.540;23.496;2023-04-24T04:53:00;18.42;;;11.05;;
35887;SDS011;21990;42.540;23.496;2023-04-24T04:55:26;17.60;;;11.95;;
35887;SDS011;21990;42.540;23.496;2023-04-24T04:57:52;32.45;;;15.85;;
35887;SDS011;21990;42.540;23.496;2023-04-24T05:00:17;55.20;;;16.70;;
35887;SDS011;21990;42.540;23.496;2023-04-24T05:02:43;38.22;;;17.23;;
35887;SDS011;21990;42.540;23.496;2023-04-24T05:05:09;27.50;;;16.27;;
35887;SDS011;21990;42.540;23.496;2023-04-24T05:07:35;40.67;;;24.63;;
35887;SDS011;21990;42.540;23.496;2023-04-24T05:10:00;36.90;;;18.55;;
35887;SDS011;21990;42.540;23.496;2023-04-24T05:12:26;18.92;;;12.23;;
35887;SDS011;21990;42.540;23.496;2023-04-24T05:14:52;20.25;;;10.13;;
35887;SDS011;21990;42.540;23.496;2023-04-24T05:17:17;25.13;;;10.07;;
35887;SDS011;21990;42.540;23.496;2023-04-24T05:19:43;15.43;;;10.50;;
35887;SDS011;21990;42.540;23.496;2023-04-24T05:22:09;21.33;;;10.65;;
35887;SDS011;21990;42.540;23.496;2023-04-24T05:24:35;14.15;;;9.15;;
35887;SDS011;21990;42.540;23.496;2023-04-24T05:27:04;16.65;;;8.70;;
35887;SDS011;21990;42.540;23.496;2023-04-24T05:29:30;13.90;;;8.77;;
35887;SDS011;21990;42.540;23.496;2023-04-24T05:31:57;18.23;;;8.70;;
35887;SDS011;21990;42.540;23.496;2023-04-24T05:34:22;19.98;;;9.60;;
35887;SDS011;21990;42.540;23.496;2023-04-24T05:36:48;20.20;;;9.55;;
35887;SDS011;21990;42.540;23.496;2023-04-24T05:39:15;36.53;;;20.92;;
35887;SDS011;21990;42.540;23.496;2023-04-24T05:41:41;28.58;;;13.57;;
35887;SDS011;21990;42.540;23.496;2023-04-24T05:44:06;18.60;;;11.98;;
35887;SDS011;21990;42.540;23.496;2023-04-24T05:46:32;19.52;;;10.73;;
35887;SDS011;21990;42.540;23.496;2023-04-24T05:48:57;19.75;;;9.90;;
35887;SDS011;21990;42.540;23.496;2023-04-24T05:51:23;17.75;;;7.80;;
35887;SDS011;21990;42.540;23.496;2023-04-24T05:53:49;12.20;;;6.38;;
35887;SDS011;21990;42.540;23.496;2023-04-24T05:56:14;18.52;;;8.27;;
35887;SDS011;21990;42.540;23.496;2023-04-24T05:58:41;15.85;;;8.63;;
35887;SDS011;21990;42.540;23.496;2023-04-24T06:01:06;17.25;;;8.70;;
35887;SDS011;21990;42.540;23.496;2023-04-24T06:03:32;21.48;;;8.45;;
35887;SDS011;21990;42.540;23.496;2023-04-24T06:05:57;17.63;;;8.02;;
35887;SDS011;21990;42.540;23.496;2023-04-24T06:08:23;14.63;;;7.30;;
35887;SDS011;21990;42.540;23.496;2023-04-24T06:10:49;21.77;;;7.68;;
35887;SDS011;21990;42.540;23.496;2023-04-24T06:13:14;20.90;;;7.60;;
35887;SDS011;21990;42.540;23.496;2023-04-24T06:15:41;13.32;;;7.00;;
35887;SDS011;21990;42.540;23.496;2023-04-24T06:18:07;15.23;;;5.63;;
35887;SDS011;21990;42.540;23.496;2023-04-24T06:20:32;13.68;;;4.97;;
35887;SDS011;21990;42.540;23.496;2023-04-24T06:22:58;7.68;;;4.68;;
35887;SDS011;21990;42.540;23.496;2023-04-24T06:25:27;8.75;;;3.97;;
35887;SDS011;21990;42.540;23.496;2023-04-24T06:27:53;7.68;;;4.03;;
35887;SDS011;21990;42.540;23.496;2023-04-24T06:30:20;6.72;;;3.72;;
35887;SDS011;21990;42.540;23.496;2023-04-24T06:32:45;7.45;;;4.10;;
35887;SDS011;21990;42.540;23.496;2023-04-24T06:35:11;6.80;;;3.45;;
35887;SDS011;21990;42.540;23.496;2023-04-24T06:37:38;8.50;;;4.57;;
35887;SDS011;21990;42.540;23.496;2023-04-24T06:40:04;11.52;;;4.25;;
35887;SDS011;21990;42.540;23.496;2023-04-24T06:42:31;7.20;;;3.97;;
35887;SDS011;21990;42.540;23.496;2023-04-24T06:44:56;13.27;;;4.40;;
35887;SDS011;21990;42.540;23.496;2023-04-24T06:47:22;9.73;;;4.07;;
35887;SDS011;21990;42.540;23.496;2023-04-24T06:49:47;9.20;;;4.13;;
35887;SDS011;21990;42.540;23.496;2023-04-24T06:52:13;10.25;;;4.10;;
35887;SDS011;21990;42.540;23.496;2023-04-24T06:54:38;11.95;;;3.88;;
35887;SDS011;21990;42.540;23.496;2023-04-24T06:57:04;11.18;;;4.43;;
35887;SDS011;21990;42.540;23.496;2023-04-24T06:59:30;10.55;;;3.97;;
35887;SDS011;21990;42.540;23.496;2023-04-24T07:01:56;9.57;;;4.18;;
35887;SDS011;21990;42.540;23.496;2023-04-24T07:04:23;8.13;;;3.53;;
35887;SDS011;21990;42.540;23.496;2023-04-24T07:06:50;12.55;;;4.00;;
35887;SDS011;21990;42.540;23.496;2023-04-24T07:09:16;9.10;;;4.05;;
35887;SDS011;21990;42.540;23.496;2023-04-24T07:11:43;6.63;;;3.60;;
35887;SDS011;21990;42.540;23.496;2023-04-24T07:14:09;6.00;;;3.40;;
35887;SDS011;21990;42.540;23.496;2023-04-24T07:16:35;9.07;;;4.68;;
35887;SDS011;21990;42.540;23.496;2023-04-24T07:19:00;7.60;;;3.50;;
35887;SDS011;21990;42.540;23.496;2023-04-24T07:21:26;6.47;;;3.25;;
35887;SDS011;21990;42.540;23.496;2023-04-24T07:23:52;12.00;;;3.85;;
35887;SDS011;21990;42.540;23.496;2023-04-24T07:26:18;14.95;;;4.97;;
35887;SDS011;21990;42.540;23.496;2023-04-24T07:28:44;11.90;;;3.67;;
35887;SDS011;21990;42.540;23.496;2023-04-24T07:31:10;12.57;;;3.60;;
35887;SDS011;21990;42.540;23.496;2023-04-24T07:33:36;8.32;;;3.63;;
35887;SDS011;21990;42.540;23.496;2023-04-24T07:36:02;9.95;;;3.85;;
35887;SDS011;21990;42.540;23.496;2023-04-24T07:38:31;12.82;;;4.97;;
35887;SDS011;21990;42.540;23.496;2023-04-24T07:40:57;9.35;;;4.72;;
35887;SDS011;21990;42.540;23.496;2023-04-24T07:43:22;8.32;;;4.30;;
35887;SDS011;21990;42.540;23.496;2023-04-24T07:45:49;8.52;;;4.65;;
35887;SDS011;21990;42.540;23.496;2023-04-24T07:48:15;6.63;;;3.60;;
35887;SDS011;21990;42.540;23.496;2023-04-24T07:50:42;9.73;;;4.72;;
35887;SDS011;21990;42.540;23.496;2023-04-24T07:53:08;13.65;;;4.88;;
35887;SDS011;21990;42.540;23.496;2023-04-24T07:55:34;5.53;;;3.60;;
35887;SDS011;21990;42.540;23.496;2023-04-24T07:58:00;7.55;;;3.35;;
35887;SDS011;21990;42.540;23.496;2023-04-24T08:00:25;11.60;;;3.08;;
35887;SDS011;21990;42.540;23.496;2023-04-24T08:02:51;6.82;;;3.72;;
35887;SDS011;21990;42.540;23.496;2023-04-24T08:05:16;6.47;;;3.25;;
35887;SDS011;21990;42.540;23.496;2023-04-24T08:07:42;7.68;;;3.63;;
35887;SDS011;21990;42.540;23.496;2023-04-24T08:10:09;9.13;;;3.20;;
35887;SDS011;21990;42.540;23.496;2023-04-24T08:12:36;8.48;;;4.28;;
35887;SDS011;21990;42.540;23.496;2023-04-24T08:15:03;11.52;;;3.25;;
35887;SDS011;21990;42.540;23.496;2023-04-24T08:17:29;6.72;;;2.95;;
35887;SDS011;21990;42.540;23.496;2023-04-24T08:19:55;4.88;;;3.17;;
35887;SDS011;21990;42.540;23.496;2023-04-24T08:22:26;9.70;;;3.20;;
35887;SDS011;21990;42.540;23.496;2023-04-24T08:24:54;6.95;;;3.00;;
35887;SDS011;21990;42.540;23.496;2023-04-24T08:27:21;9.98;;;3.38;;
35887;SDS011;21990;42.540;23.496;2023-04-24T08:29:46;7.38;;;3.22;;
35887;SDS011;21990;42.540;23.496;2023-04-24T08:32:12;6.55;;;3.17;;
35887;SDS011;21990;42.540;23.496;2023-04-24T08:34:37;10.45;;;3.28;;
35887;SDS011;21990;42.540;23.496;2023-04-24T08:37:03;8.15;;;3.00;;
35887;SDS011;21990;42.540;23.496;2023-04-24T08:39:28;7.63;;;2.85;;
35887;SDS011;21990;42.540;23.496;2023-04-24T08:41:54;4.88;;;2.75;;
35887;SDS011;21990;42.540;23.496;2023-04-24T08:44:21;8.38;;;2.90;;
35887;SDS011;21990;42.540;23.496;2023-04-24T08:46:47;10.90;;;3.13;;
35887;SDS011;21990;42.540;23.496;2023-04-24T08:49:14;4.88;;;2.65;;
35887;SDS011;21990;42.540;23.496;2023-04-24T08:51:43;7.50;;;2.85;;
35887;SDS011;21990;42.540;23.496;2023-04-24T08:54:10;4.35;;;2.70;;
35887;SDS011;21990;42.540;23.496;2023-04-24T08:56:37;10.05;;;2.78;;
35887;SDS011;21990;42.540;23.496;2023-04-24T08:59:05;5.35;;;2.90;;
35887;SDS011;21990;42.540;23.496;2023-04-24T09:01:32;6.97;;;2.40;;
35887;SDS011;21990;42.540;23.496;2023-04-24T09:04:00;6.68;;;2.80;;
35887;SDS011;21990;42.540;23.496;2023-04-24T09:06:27;10.52;;;3.10;;
35887;SDS011;21990;42.540;23.496;2023-04-24T09:08:53;7.68;;;2.72;;
35887;SDS011;21990;42.540;23.496;2023-04-24T09:11:21;5.25;;;2.70;;
35887;SDS011;21990;42.540;23.496;2023-04-24T09:13:49;6.30;;;2.63;;
35887;SDS011;21990;42.540;23.496;2023-04-24T09:16:16;4.00;;;2.10;;
35887;SDS011;21990;42.540;23.496;2023-04-24T09:18:42;6.18;;;2.90;;
35887;SDS011;21990;42.540;23.496;2023-04-24T09:21:08;8.70;;;2.50;;
35887;SDS011;21990;42.540;23.496;2023-04-24T09:23:34;6.70;;;2.60;;
35887;SDS011;21990;42.540;23.496;2023-04-24T09:26:01;8.70;;;3.28;;
35887;SDS011;21990;42.540;23.496;2023-04-24T09:28:31;15.40;;;2.28;;
35887;SDS011;21990;42.540;23.496;2023-04-24T09:31:07;4.65;;;2.97;;
35887;SDS011;21990;42.540;23.496;2023-04-24T09:33:35;5.95;;;3.05;;
35887;SDS011;21990;42.540;23.496;2023-04-24T09:36:02;6.70;;;3.25;;
35887;SDS011;21990;42.540;23.496;2023-04-24T09:38:37;5.15;;;2.72;;
35887;SDS011;21990;42.540;23.496;2023-04-24T09:41:07;18.15;;;3.22;;
35887;SDS011;21990;42.540;23.496;2023-04-24T09:43:38;9.52;;;3.25;;
35887;SDS011;21990;42.540;23.496;2023-04-24T09:46:04;5.40;;;2.67;;
35887;SDS011;21990;42.540;23.496;2023-04-24T09:48:32;8.50;;;2.78;;
35887;SDS011;21990;42.540;23.496;2023-04-24T09:51:00;4.20;;;2.45;;
35887;SDS011;21990;42.540;23.496;2023-04-24T09:53:28;7.90;;;2.72;;
35887;SDS011;21990;42.540;23.496;2023-04-24T09:55:54;5.43;;;2.38;;
35887;SDS011;21990;42.540;23.496;2023-04-24T09:58:26;7.13;;;2.83;;
35887;SDS011;21990;42.540;23.496;2023-04-24T10:00:55;5.75;;;2.72;;
35887;SDS011;21990;42.540;23.496;2023-04-24T10:03:24;16.92;;;7.28;;
35887;SDS011;21990;42.540;23.496;2023-04-24T10:05:52;7.68;;;3.53;;
35887;SDS011;21990;42.540;23.496;2023-04-24T10:08:18;8.10;;;2.90;;
35887;SDS011;21990;42.540;23.496;2023-04-24T10:10:45;9.90;;;3.80;;
35887;SDS011;21990;42.540;23.496;2023-04-24T10:13:12;6.80;;;3.30;;
35887;SDS011;21990;42.540;23.496;2023-04-24T10:15:40;13.20;;;3.50;;
35887;SDS011;21990;42.540;23.496;2023-04-24T10:18:07;13.38;;;4.85;;
35887;SDS011;21990;42.540;23.496;2023-04-24T10:20:34;6.05;;;3.03;;
35887;SDS011;21990;42.540;23.496;2023-04-24T10:23:02;9.95;;;2.78;;
35887;SDS011;21990;42.540;23.496;2023-04-24T10:25:29;16.77;;;2.65;;
35887;SDS011;21990;42.540;23.496;2023-04-24T10:27:56;10.60;;;3.17;;
35887;SDS011;21990;42.540;23.496;2023-04-24T10:30:24;4.68;;;1.80;;
35887;SDS011;21990;42.540;23.496;2023-04-24T10:32:51;7.43;;;2.00;;
35887;SDS011;21990;42.540;23.496;2023-04-24T10:35:17;6.57;;;2.58;;
35887;SDS011;21990;42.540;23.496;2023-04-24T10:37:54;3.08;;;1.90;;
35887;SDS011;21990;42.540;23.496;2023-04-24T10:40:26;11.00;;;2.70;;
35887;SDS011;21990;42.540;23.496;2023-04-24T10:42:55;8.27;;;2.20;;
35887;SDS011;21990;42.540;23.496;2023-04-24T10:45:22;8.65;;;2.30;;
35887;SDS011;21990;42.540;23.496;2023-04-24T10:47:58;8.15;;;2.30;;
35887;SDS011;21990;42.540;23.496;2023-04-24T10:50:27;8.52;;;2.17;;
35887;SDS011;21990;42.540;23.496;2023-04-24T10:52:53;11.40;;;2.60;;
35887;SDS011;21990;42.540;23.496;2023-04-24T10:55:40;7.53;;;2.95;;
35887;SDS011;21990;42.540;23.496;2023-04-24T10:58:09;7.32;;;2.40;;
35887;SDS011;21990;42.540;23.496;2023-04-24T11:00:36;8.32;;;2.25;;
35887;SDS011;21990;42.540;23.496;2023-04-24T11:03:04;6.38;;;2.00;;
35887;SDS011;21990;42.540;23.496;2023-04-24T11:05:50;3.92;;;1.95;;
35887;SDS011;21990;42.540;23.496;2023-04-24T11:08:24;6.35;;;2.00;;
35887;SDS011;21990;42.540;23.496;2023-04-24T11:10:55;5.60;;;1.70;;
35887;SDS011;21990;42.540;23.496;2023-04-24T11:18:49;3.90;;;2.03;;
35887;SDS011;21990;42.540;23.496;2023-04-24T11:21:18;5.55;;;2.03;;
35887;SDS011;21990;42.540;23.496;2023-04-24T11:23:44;14.85;;;2.00;;
35887;SDS011;21990;42.540;23.496;2023-04-24T11:26:11;5.25;;;1.70;;
35887;SDS011;21990;42.540;23.496;2023-04-24T11:28:49;7.15;;;1.75;;
35887;SDS011;21990;42.540;23.496;2023-04-24T11:34:10;10.35;;;3.05;;
35887;SDS011;21990;42.540;23.496;2023-04-24T11:36:39;7.28;;;2.38;;
35887;SDS011;21990;42.540;23.496;2023-04-24T11:39:05;6.38;;;1.98;;
35887;SDS011;21990;42.540;23.496;2023-04-24T11:41:31;11.02;;;2.83;;
35887;SDS011;21990;42.540;23.496;2023-04-24T11:43:58;9.73;;;3.65;;
35887;SDS011;21990;42.540;23.496;2023-04-24T11:46:28;7.88;;;4.40;;
35887;SDS011;21990;42.540;23.496;2023-04-24T11:48:55;94.72;;;44.33;;
35887;SDS011;21990;42.540;23.496;2023-04-24T11:51:22;11.50;;;7.20;;
35887;SDS011;21990;42.540;23.496;2023-04-24T11:53:49;8.77;;;3.72;;
35887;SDS011;21990;42.540;23.496;2023-04-24T11:56:17;10.02;;;3.25;;
35887;SDS011;21990;42.540;23.496;2023-04-24T11:58:44;9.45;;;2.30;;
35887;SDS011;21990;42.540;23.496;2023-04-24T12:01:09;8.15;;;2.25;;
35887;SDS011;21990;42.540;23.496;2023-04-24T12:03:35;4.53;;;2.35;;
35887;SDS011;21990;42.540;23.496;2023-04-24T12:06:04;20.60;;;6.22;;
35887;SDS011;21990;42.540;23.496;2023-04-24T12:08:33;9.05;;;4.45;;
35887;SDS011;21990;42.540;23.496;2023-04-24T12:11:03;9.60;;;5.25;;
35887;SDS011;21990;42.540;23.496;2023-04-24T12:13:32;29.60;;;16.02;;
35887;SDS011;21990;42.540;23.496;2023-04-24T12:15:58;26.63;;;11.63;;
35887;SDS011;21990;42.540;23.496;2023-04-24T12:18:23;20.55;;;9.90;;
35887;SDS011;21990;42.540;23.496;2023-04-24T12:20:49;18.40;;;6.70;;
35887;SDS011;21990;42.540;23.496;2023-04-24T12:23:15;10.57;;;3.80;;
35887;SDS011;21990;42.540;23.496;2023-04-24T12:25:42;10.27;;;3.83;;
35887;SDS011;21990;42.540;23.496;2023-04-24T12:28:12;17.70;;;4.70;;
35887;SDS011;21990;42.540;23.496;2023-04-24T12:30:39;7.35;;;3.53;;
35887;SDS011;21990;42.540;23.496;2023-04-24T12:33:09;4.47;;;3.03;;
35887;SDS011;21990;42.540;23.496;2023-04-24T12:35:34;9.18;;;3.45;;
35887;SDS011;21990;42.540;23.496;2023-04-24T12:38:07;10.48;;;5.22;;
35887;SDS011;21990;42.540;23.496;2023-04-24T12:40:34;9.45;;;4.10;;
35887;SDS011;21990;42.540;23.496;2023-04-24T12:43:00;14.32;;;3.50;;
35887;SDS011;21990;42.540;23.496;2023-04-24T12:45:26;8.32;;;4.30;;
35887;SDS011;21990;42.540;23.496;2023-04-24T12:47:53;6.30;;;3.30;;
35887;SDS011;21990;42.540;23.496;2023-04-24T12:50:18;14.70;;;3.50;;
35887;SDS011;21990;42.540;23.496;2023-04-24T12:52:44;22.25;;;9.18;;
35887;SDS011;21990;42.540;23.496;2023-04-24T12:55:10;21.98;;;6.20;;
35887;SDS011;21990;42.540;23.496;2023-04-24T12:57:37;20.27;;;5.13;;
35887;SDS011;21990;42.540;23.496;2023-04-24T13:00:04;14.90;;;5.00;;
35887;SDS011;21990;42.540;23.496;2023-04-24T13:02:31;14.35;;;5.00;;
35887;SDS011;21990;42.540;23.496;2023-04-24T13:04:58;11.23;;;4.15;;
35887;SDS011;21990;42.540;23.496;2023-04-24T13:07:25;17.77;;;4.32;;
35887;SDS011;21990;42.540;23.496;2023-04-24T13:09:51;11.90;;;4.32;;
35887;SDS011;21990;42.540;23.496;2023-04-24T13:12:17;8.50;;;4.20;;
35887;SDS011;21990;42.540;23.496;2023-04-24T13:14:43;12.23;;;5.30;;
35887;SDS011;21990;42.540;23.496;2023-04-24T13:17:09;9.32;;;4.72;;
35887;SDS011;21990;42.540;23.496;2023-04-24T13:19:40;11.50;;;5.20;;
35887;SDS011;21990;42.540;23.496;2023-04-24T13:22:10;22.83;;;5.18;;
35887;SDS011;21990;42.540;23.496;2023-04-24T13:24:42;11.98;;;6.38;;
35887;SDS011;21990;42.540;23.496;2023-04-24T13:27:27;26.27;;;16.50;;
35887;SDS011;21990;42.540;23.496;2023-04-24T13:30:11;18.77;;;10.60;;
35887;SDS011;21990;42.540;23.496;2023-04-24T13:33:01;12.20;;;7.47;;
35887;SDS011;21990;42.540;23.496;2023-04-24T13:35:37;12.63;;;6.28;;
35887;SDS011;21990;42.540;23.496;2023-04-24T13:38:13;12.90;;;7.13;;
35887;SDS011;21990;42.540;23.496;2023-04-24T13:40:49;8.27;;;5.57;;
35887;SDS011;21990;42.540;23.496;2023-04-24T13:44:01;10.30;;;5.75;;
35887;SDS011;21990;42.540;23.496;2023-04-24T13:46:57;13.63;;;5.28;;
35887;SDS011;21990;42.540;23.496;2023-04-24T13:53:04;8.25;;;5.85;;
35887;SDS011;21990;42.540;23.496;2023-04-24T13:55:30;8.90;;;5.43;;
35887;SDS011;21990;42.540;23.496;2023-04-24T13:57:57;10.38;;;5.47;;
35887;SDS011;21990;42.540;23.496;2023-04-24T14:00:25;22.45;;;10.15;;
35887;SDS011;21990;42.540;23.496;2023-04-24T14:02:53;9.68;;;6.75;;
35887;SDS011;21990;42.540;23.496;2023-04-24T14:05:19;9.50;;;6.03;;
35887;SDS011;21990;42.540;23.496;2023-04-24T14:07:52;9.90;;;7.15;;
35887;SDS011;21990;42.540;23.496;2023-04-24T14:10:21;10.15;;;6.53;;
35887;SDS011;21990;42.540;23.496;2023-04-24T14:12:49;9.07;;;5.80;;
35887;SDS011;21990;42.540;23.496;2023-04-24T14:15:18;16.73;;;6.05;;
35887;SDS011;21990;42.540;23.496;2023-04-24T14:17:47;11.90;;;5.78;;
35887;SDS011;21990;42.540;23.496;2023-04-24T14:20:15;12.40;;;6.30;;
35887;SDS011;21990;42.540;23.496;2023-04-24T14:22:41;21.38;;;8.05;;
35887;SDS011;21990;42.540;23.496;2023-04-24T14:25:08;12.30;;;7.07;;
35887;SDS011;21990;42.540;23.496;2023-04-24T14:27:34;12.52;;;6.63;;
35887;SDS011;21990;42.540;23.496;2023-04-24T14:30:04;14.07;;;7.47;;
35887;SDS011;21990;42.540;23.496;2023-04-24T14:32:51;18.73;;;9.40;;